sensor_id;sensor_type;location;lat;lon;timestamp;P1;durP1;ratioP1;P2;durP2;ratioP2
15557;SDS011;7880;50.110;9.372;2022-11-20T00:01:10;25.784615384615396;;;14.82307692307692;;
15557;SDS011;7880;50.110;9.372;2022-11-20T00:06:13;25.076923076923073;;;14.17692307692308;;
15557;SDS011;7880;50.110;9.372;2022-11-20T00:11:18;26.461538461538453;;;13.876923076923076;;
15557;SDS011;7880;50.110;9.372;2022-11-20T00:16:23;25.37692307692308;;;14.015384615384612;;
15557;SDS011;7880;50.110;9.372;2022-11-20T00:21:27;29.03846153846153;;;13.800000000000002;;
15557;SDS011;7880;50.110;9.372;2022-11-20T00:26:31;27.94615384615384;;;13.915384615384612;;
15557;SDS011;7880;50.110;9.372;2022-11-20T00:31:35;26.953846153846158;;;14.453846153846154;;
15557;SDS011;7880;50.110;9.372;2022-11-20T00:36:39;26.607692307692318;;;14.61538461538462;;
15557;SDS011;7880;50.110;9.372;2022-11-20T00:41:46;30.04615384615385;;;14.976923076923075;;
15557;SDS011;7880;50.110;9.372;2022-11-20T00:46:46;33.16153846153847;;;15.099999999999996;;
15557;SDS011;7880;50.110;9.372;2022-11-20T00:51:55;31.86923076923077;;;16.400000000000002;;
15557;SDS011;7880;50.110;9.372;2022-11-20T00:56:54;32.36923076923077;;;16.56153846153846;;
15557;SDS011;7880;50.110;9.372;2022-11-20T01:02:01;29.399999999999995;;;14.715384615384616;;
15557;SDS011;7880;50.110;9.372;2022-11-20T01:07:05;35.06923076923077;;;16.16153846153846;;
15557;SDS011;7880;50.110;9.372;2022-11-20T01:12:20;29.26923076923077;;;16.5;;
15557;SDS011;7880;50.110;9.372;2022-11-20T01:17:27;27.676923076923078;;;15.11538461538462;;
15557;SDS011;7880;50.110;9.372;2022-11-20T01:22:34;31.746153846153852;;;15.415384615384612;;
15557;SDS011;7880;50.110;9.372;2022-11-20T01:27:43;26.576923076923073;;;14.638461538461533;;
15557;SDS011;7880;50.110;9.372;2022-11-20T01:32:48;28.24615384615384;;;15.430769230769233;;
15557;SDS011;7880;50.110;9.372;2022-11-20T01:37:52;30.153846153846146;;;14.976923076923075;;
15557;SDS011;7880;50.110;9.372;2022-11-20T01:43:25;28.823076923076925;;;15.553846153846159;;
15557;SDS011;7880;50.110;9.372;2022-11-20T01:48:07;27.284615384615396;;;14.038461538461537;;
15557;SDS011;7880;50.110;9.372;2022-11-20T01:53:13;29.730769230769234;;;16.623076923076923;;
15557;SDS011;7880;50.110;9.372;2022-11-20T01:58:16;27.484615384615385;;;15.376923076923076;;
15557;SDS011;7880;50.110;9.372;2022-11-20T02:03:20;31.823076923076922;;;15.56153846153846;;
15557;SDS011;7880;50.110;9.372;2022-11-20T02:08:24;30.684615384615388;;;15.461538461538463;;
15557;SDS011;7880;50.110;9.372;2022-11-20T02:13:48;30.538461538461547;;;15.199999999999998;;
15557;SDS011;7880;50.110;9.372;2022-11-20T02:18:31;29.915384615384628;;;16.699999999999996;;
15557;SDS011;7880;50.110;9.372;2022-11-20T02:23:36;32.2076923076923;;;16.56153846153846;;
15557;SDS011;7880;50.110;9.372;2022-11-20T02:28:39;28.861538461538473;;;16.23076923076923;;
15557;SDS011;7880;50.110;9.372;2022-11-20T02:33:42;28.176923076923078;;;15.353846153846153;;
15557;SDS011;7880;50.110;9.372;2022-11-20T02:38:51;32.43846153846154;;;15.338461538461539;;
15557;SDS011;7880;50.110;9.372;2022-11-20T02:43:53;30.12307692307692;;;15.738461538461545;;
15557;SDS011;7880;50.110;9.372;2022-11-20T02:48:56;28.87692307692308;;;15.661538461538461;;
15557;SDS011;7880;50.110;9.372;2022-11-20T02:54:01;31.699999999999992;;;15.561538461538458;;
15557;SDS011;7880;50.110;9.372;2022-11-20T02:59:07;31.184615384615388;;;16.17692307692308;;
15557;SDS011;7880;50.110;9.372;2022-11-20T03:04:10;28.923076923076927;;;14.876923076923076;;
15557;SDS011;7880;50.110;9.372;2022-11-20T03:09:13;33.17692307692308;;;16.238461538461543;;
15557;SDS011;7880;50.110;9.372;2022-11-20T03:14:18;30.192307692307686;;;15.38461538461538;;
15557;SDS011;7880;50.110;9.372;2022-11-20T03:19:23;26.084615384615372;;;13.238461538461545;;
15557;SDS011;7880;50.110;9.372;2022-11-20T03:24:26;27.830769230769224;;;14.853846153846153;;
15557;SDS011;7880;50.110;9.372;2022-11-20T03:29:43;31.438461538461542;;;16.038461538461537;;
15557;SDS011;7880;50.110;9.372;2022-11-20T03:34:35;28.361538461538466;;;15.230769230769235;;
15557;SDS011;7880;50.110;9.372;2022-11-20T03:39:40;25.38461538461538;;;13.138461538461533;;
15557;SDS011;7880;50.110;9.372;2022-11-20T03:44:56;28.984615384615385;;;15.023076923076925;;
15557;SDS011;7880;50.110;9.372;2022-11-20T03:49:51;28.823076923076922;;;15.338461538461539;;
15557;SDS011;7880;50.110;9.372;2022-11-20T03:54:55;34.72307692307693;;;15.738461538461545;;
15557;SDS011;7880;50.110;9.372;2022-11-20T03:59:59;29.699999999999992;;;14.976923076923075;;
15557;SDS011;7880;50.110;9.372;2022-11-20T04:05:01;27.53076923076924;;;14.56153846153846;;
15557;SDS011;7880;50.110;9.372;2022-11-20T04:10:14;28.807692307692307;;;14.900000000000004;;
15557;SDS011;7880;50.110;9.372;2022-11-20T04:15:10;27.407692307692304;;;13.99230769230769;;
15557;SDS011;7880;50.110;9.372;2022-11-20T04:20:15;25.438461538461542;;;14.461538461538463;;
15557;SDS011;7880;50.110;9.372;2022-11-20T04:25:18;27.13846153846153;;;13.976923076923075;;
15557;SDS011;7880;50.110;9.372;2022-11-20T04:30:22;29.699999999999992;;;14.199999999999998;;
15557;SDS011;7880;50.110;9.372;2022-11-20T04:35:25;26.907692307692304;;;13.469230769230771;;
15557;SDS011;7880;50.110;9.372;2022-11-20T04:40:31;24.161538461538463;;;12.361538461538466;;
15557;SDS011;7880;50.110;9.372;2022-11-20T04:45:34;26.953846153846158;;;13.576923076923073;;
15557;SDS011;7880;50.110;9.372;2022-11-20T04:50:49;26.938461538461542;;;14.053846153846159;;
15557;SDS011;7880;50.110;9.372;2022-11-20T04:55:40;26.246153846153852;;;13.753846153846153;;
15557;SDS011;7880;50.110;9.372;2022-11-20T05:00:43;26.061538461538458;;;14.699999999999998;;
15557;SDS011;7880;50.110;9.372;2022-11-20T05:05:49;26.430769230769233;;;13.56153846153846;;
15557;SDS011;7880;50.110;9.372;2022-11-20T05:10:53;29.969230769230776;;;14.361538461538467;;
15557;SDS011;7880;50.110;9.372;2022-11-20T05:16:02;29.61538461538462;;;15.67692307692308;;
15557;SDS011;7880;50.110;9.372;2022-11-20T05:21:12;27.45384615384615;;;13.923076923076927;;
15557;SDS011;7880;50.110;9.372;2022-11-20T05:26:17;24.41538461538462;;;13.56153846153846;;
15557;SDS011;7880;50.110;9.372;2022-11-20T05:31:20;25.676923076923078;;;13.538461538461537;;
15557;SDS011;7880;50.110;9.372;2022-11-20T05:36:29;29.169230769230783;;;14.400000000000004;;
15557;SDS011;7880;50.110;9.372;2022-11-20T05:41:29;25.176923076923078;;;13.67692307692308;;
15557;SDS011;7880;50.110;9.372;2022-11-20T05:46:34;23.72307692307693;;;12.400000000000004;;
15557;SDS011;7880;50.110;9.372;2022-11-20T05:51:38;24.47692307692307;;;13.076923076923077;;
15557;SDS011;7880;50.110;9.372;2022-11-20T05:56:43;24.0;;;13.361538461538467;;
15557;SDS011;7880;50.110;9.372;2022-11-20T06:01:49;27.969230769230776;;;13.861538461538467;;
15557;SDS011;7880;50.110;9.372;2022-11-20T06:06:53;28.084615384615372;;;13.838461538461539;;
15557;SDS011;7880;50.110;9.372;2022-11-20T06:11:56;30.823076923076922;;;15.06153846153846;;
15557;SDS011;7880;50.110;9.372;2022-11-20T06:16:35;31.899999999999995;;;16.86923076923077;;
15557;SDS011;7880;50.110;9.372;2022-11-20T06:21:39;30.54615384615385;;;14.861538461538467;;
15557;SDS011;7880;50.110;9.372;2022-11-20T06:26:41;33.89999999999999;;;14.215384615384616;;
15557;SDS011;7880;50.110;9.372;2022-11-20T06:31:45;27.561538461538458;;;14.0;;
15557;SDS011;7880;50.110;9.372;2022-11-20T06:36:49;32.0;;;16.076923076923073;;
15557;SDS011;7880;50.110;9.372;2022-11-20T06:41:53;30.461538461538453;;;15.861538461538467;;
15557;SDS011;7880;50.110;9.372;2022-11-20T06:46:57;29.069230769230767;;;15.199999999999998;;
15557;SDS011;7880;50.110;9.372;2022-11-20T06:52:01;35.16153846153847;;;17.73846153846154;;
15557;SDS011;7880;50.110;9.372;2022-11-20T06:57:06;31.776923076923065;;;15.338461538461539;;
15557;SDS011;7880;50.110;9.372;2022-11-20T07:02:09;31.87692307692308;;;15.900000000000004;;
15557;SDS011;7880;50.110;9.372;2022-11-20T07:07:15;32.89999999999999;;;15.61538461538462;;
15557;SDS011;7880;50.110;9.372;2022-11-20T07:12:17;31.153846153846146;;;15.400000000000004;;
15557;SDS011;7880;50.110;9.372;2022-11-20T07:17:26;33.03846153846155;;;15.5;;
15557;SDS011;7880;50.110;9.372;2022-11-20T07:22:25;33.030769230769224;;;15.099999999999996;;
15557;SDS011;7880;50.110;9.372;2022-11-20T07:27:34;31.892307692307686;;;14.715384615384616;;
15557;SDS011;7880;50.110;9.372;2022-11-20T07:32:34;31.692307692307686;;;14.623076923076924;;
15557;SDS011;7880;50.110;9.372;2022-11-20T07:37:36;32.7923076923077;;;14.776923076923081;;
15557;SDS011;7880;50.110;9.372;2022-11-20T07:42:47;32.43846153846154;;;14.800000000000002;;
15557;SDS011;7880;50.110;9.372;2022-11-20T07:47:46;33.06153846153846;;;14.05384615384615;;
15557;SDS011;7880;50.110;9.372;2022-11-20T07:52:59;32.484615384615395;;;14.300000000000002;;
15557;SDS011;7880;50.110;9.372;2022-11-20T07:57:54;34.73076923076923;;;14.638461538461533;;
15557;SDS011;7880;50.110;9.372;2022-11-20T08:03:02;34.669230769230765;;;14.599999999999996;;
15557;SDS011;7880;50.110;9.372;2022-11-20T08:08:08;29.030769230769238;;;12.661538461538463;;
15557;SDS011;7880;50.110;9.372;2022-11-20T08:14:16;28.984615384615388;;;13.776923076923081;;
15557;SDS011;7880;50.110;9.372;2022-11-20T08:19:04;30.09230769230769;;;13.738461538461545;;
15557;SDS011;7880;50.110;9.372;2022-11-20T08:24:12;29.569230769230767;;;13.276923076923081;;
15557;SDS011;7880;50.110;9.372;2022-11-20T08:29:09;23.392307692307686;;;11.876923076923076;;
15557;SDS011;7880;50.110;9.372;2022-11-20T08:34:18;23.715384615384608;;;11.730769230769228;;
15557;SDS011;7880;50.110;9.372;2022-11-20T08:39:15;24.799999999999997;;;12.5;;
15557;SDS011;7880;50.110;9.372;2022-11-20T08:44:19;24.553846153846163;;;11.900000000000004;;
15557;SDS011;7880;50.110;9.372;2022-11-20T08:49:23;24.684615384615388;;;12.06153846153846;;
15557;SDS011;7880;50.110;9.372;2022-11-20T08:54:27;23.953846153846158;;;12.36923076923077;;
15557;SDS011;7880;50.110;9.372;2022-11-20T08:59:31;22.36153846153847;;;11.5;;
15557;SDS011;7880;50.110;9.372;2022-11-20T09:04:38;19.853846153846156;;;10.638461538461538;;
15557;SDS011;7880;50.110;9.372;2022-11-20T09:09:39;22.0;;;11.476923076923075;;
15557;SDS011;7880;50.110;9.372;2022-11-20T09:14:46;25.861538461538466;;;14.130769230769225;;
15557;SDS011;7880;50.110;9.372;2022-11-20T09:19:47;44.05384615384614;;;20.453846153846158;;
15557;SDS011;7880;50.110;9.372;2022-11-20T09:24:54;33.36923076923077;;;16.88461538461538;;
15557;SDS011;7880;50.110;9.372;2022-11-20T09:29:55;22.984615384615395;;;12.461538461538465;;
15557;SDS011;7880;50.110;9.372;2022-11-20T09:35:01;14.88461538461538;;;9.06153846153846;;
15557;SDS011;7880;50.110;9.372;2022-11-20T09:40:16;12.384615384615383;;;8.200000000000001;;
15557;SDS011;7880;50.110;9.372;2022-11-20T09:45:22;4.700000000000001;;;2.838461538461538;;
15557;SDS011;7880;50.110;9.372;2022-11-20T09:50:23;6.66153846153846;;;3.899999999999999;;
15557;SDS011;7880;50.110;9.372;2022-11-20T09:55:23;6.861538461538459;;;4.200000000000001;;
15557;SDS011;7880;50.110;9.372;2022-11-20T10:00:30;8.930769230769231;;;5.43076923076923;;
15557;SDS011;7880;50.110;9.372;2022-11-20T10:05:27;7.738461538461538;;;4.6000000000000005;;
15557;SDS011;7880;50.110;9.372;2022-11-20T10:10:32;10.0;;;5.700000000000002;;
15557;SDS011;7880;50.110;9.372;2022-11-20T10:15:36;13.43846153846154;;;6.138461538461541;;
15557;SDS011;7880;50.110;9.372;2022-11-20T10:20:46;14.161538461538461;;;7.138461538461541;;
15557;SDS011;7880;50.110;9.372;2022-11-20T10:25:46;12.0;;;6.900000000000001;;
15557;SDS011;7880;50.110;9.372;2022-11-20T10:30:48;16.44615384615384;;;6.738461538461538;;
15557;SDS011;7880;50.110;9.372;2022-11-20T10:35:52;45.95384615384615;;;8.376923076923076;;
15557;SDS011;7880;50.110;9.372;2022-11-20T10:41:25;19.192307692307686;;;8.323076923076924;;
15557;SDS011;7880;50.110;9.372;2022-11-20T10:46:34;13.976923076923075;;;7.83846153846154;;
15557;SDS011;7880;50.110;9.372;2022-11-20T10:51:31;18.692307692307693;;;8.33846153846154;;
15557;SDS011;7880;50.110;9.372;2022-11-20T10:56:31;22.88461538461538;;;9.5;;
15557;SDS011;7880;50.110;9.372;2022-11-20T11:01:30;20.792307692307695;;;7.969230769230771;;
15557;SDS011;7880;50.110;9.372;2022-11-20T11:06:39;23.199999999999996;;;9.66153846153846;;
15557;SDS011;7880;50.110;9.372;2022-11-20T11:11:40;28.43076923076923;;;8.900000000000002;;
15557;SDS011;7880;50.110;9.372;2022-11-20T11:17:03;38.32307692307692;;;10.376923076923076;;
15557;SDS011;7880;50.110;9.372;2022-11-20T11:20:59;28.507692307692302;;;11.73076923076923;;
15557;SDS011;7880;50.110;9.372;2022-11-20T11:25:56;21.407692307692304;;;8.538461538461537;;
15557;SDS011;7880;50.110;9.372;2022-11-20T11:30:54;80.02307692307691;;;12.553846153846157;;
15557;SDS011;7880;50.110;9.372;2022-11-20T11:36:16;53.75384615384615;;;9.676923076923076;;
15557;SDS011;7880;50.110;9.372;2022-11-20T11:41:09;22.307692307692314;;;12.03076923076923;;
15557;SDS011;7880;50.110;9.372;2022-11-20T11:46:07;17.576923076923073;;;8.576923076923078;;
15557;SDS011;7880;50.110;9.372;2022-11-20T11:51:09;27.38461538461538;;;10.915384615384612;;
15557;SDS011;7880;50.110;9.372;2022-11-20T11:56:13;27.2076923076923;;;12.06153846153846;;
15557;SDS011;7880;50.110;9.372;2022-11-20T12:01:21;38.96153846153847;;;11.138461538461534;;
15557;SDS011;7880;50.110;9.372;2022-11-20T12:06:23;25.34615384615385;;;10.838461538461539;;
15557;SDS011;7880;50.110;9.372;2022-11-20T12:11:31;67.79999999999998;;;13.661538461538461;;
15557;SDS011;7880;50.110;9.372;2022-11-20T12:16:32;34.14615384615384;;;14.038461538461537;;
15557;SDS011;7880;50.110;9.372;2022-11-20T12:21:36;40.300000000000004;;;13.400000000000004;;
15557;SDS011;7880;50.110;9.372;2022-11-20T12:26:43;25.04615384615385;;;11.861538461538466;;
15557;SDS011;7880;50.110;9.372;2022-11-20T12:31:48;24.038461538461544;;;11.7;;
15557;SDS011;7880;50.110;9.372;2022-11-20T12:36:52;37.107692307692304;;;14.553846153846159;;
15557;SDS011;7880;50.110;9.372;2022-11-20T12:48:49;30.67692307692308;;;14.199999999999998;;
15557;SDS011;7880;50.110;9.372;2022-11-20T12:53:52;28.76923076923076;;;12.8;;
15557;SDS011;7880;50.110;9.372;2022-11-20T12:58:56;32.661538461538456;;;11.461538461538462;;
15557;SDS011;7880;50.110;9.372;2022-11-20T13:03:57;30.192307692307693;;;14.407692307692308;;
15557;SDS011;7880;50.110;9.372;2022-11-20T13:09:00;31.73846153846153;;;14.076923076923073;;
15557;SDS011;7880;50.110;9.372;2022-11-20T13:14:09;31.023076923076914;;;13.11538461538462;;
15557;SDS011;7880;50.110;9.372;2022-11-20T13:19:10;31.54615384615385;;;14.599999999999996;;
15557;SDS011;7880;50.110;9.372;2022-11-20T13:24:21;35.07692307692307;;;15.576923076923073;;
15557;SDS011;7880;50.110;9.372;2022-11-20T13:29:19;30.807692307692307;;;14.523076923076925;;
15557;SDS011;7880;50.110;9.372;2022-11-20T13:34:22;35.0923076923077;;;16.22307692307692;;
15557;SDS011;7880;50.110;9.372;2022-11-20T13:39:28;36.5;;;14.515384615384612;;
15557;SDS011;7880;50.110;9.372;2022-11-20T13:44:33;30.03846153846154;;;15.061538461538458;;
15557;SDS011;7880;50.110;9.372;2022-11-20T13:49:37;26.207692307692312;;;12.599999999999996;;
15557;SDS011;7880;50.110;9.372;2022-11-20T13:54:45;27.63076923076924;;;12.976923076923075;;
15557;SDS011;7880;50.110;9.372;2022-11-20T13:59:47;27.607692307692314;;;13.038461538461537;;
15557;SDS011;7880;50.110;9.372;2022-11-20T14:04:49;35.330769230769235;;;15.56153846153846;;
15557;SDS011;7880;50.110;9.372;2022-11-20T14:10:00;29.107692307692314;;;12.984615384615388;;
15557;SDS011;7880;50.110;9.372;2022-11-20T14:14:57;24.199999999999992;;;11.56153846153846;;
15557;SDS011;7880;50.110;9.372;2022-11-20T14:20:01;21.530769230769234;;;11.161538461538461;;
15557;SDS011;7880;50.110;9.372;2022-11-20T14:25:18;22.323076923076922;;;11.3;;
15557;SDS011;7880;50.110;9.372;2022-11-20T14:30:12;26.492307692307694;;;11.661538461538461;;
15557;SDS011;7880;50.110;9.372;2022-11-20T14:35:14;17.67692307692308;;;9.838461538461539;;
15557;SDS011;7880;50.110;9.372;2022-11-20T14:40:25;19.823076923076925;;;9.015384615384615;;
15557;SDS011;7880;50.110;9.372;2022-11-20T14:45:20;18.684615384615388;;;9.700000000000001;;
15557;SDS011;7880;50.110;9.372;2022-11-20T14:50:28;18.74615384615385;;;9.784615384615384;;
15557;SDS011;7880;50.110;9.372;2022-11-20T14:55:29;15.0;;;8.33846153846154;;
15557;SDS011;7880;50.110;9.372;2022-11-20T15:00:35;17.96923076923077;;;8.715384615384616;;
15557;SDS011;7880;50.110;9.372;2022-11-20T15:05:45;15.00769230769231;;;7.661538461538461;;
15557;SDS011;7880;50.110;9.372;2022-11-20T15:10:44;19.907692307692304;;;8.299999999999999;;
15557;SDS011;7880;50.110;9.372;2022-11-20T15:15:46;15.223076923076924;;;7.615384615384614;;
15557;SDS011;7880;50.110;9.372;2022-11-20T15:20:49;14.600000000000001;;;7.400000000000001;;
15557;SDS011;7880;50.110;9.372;2022-11-20T15:25:53;12.8;;;6.900000000000001;;
15557;SDS011;7880;50.110;9.372;2022-11-20T15:30:57;13.684615384615382;;;6.5384615384615365;;
15557;SDS011;7880;50.110;9.372;2022-11-20T15:36:03;11.238461538461543;;;6.438461538461538;;
15557;SDS011;7880;50.110;9.372;2022-11-20T15:41:07;12.246153846153847;;;6.361538461538459;;
15557;SDS011;7880;50.110;9.372;2022-11-20T15:46:11;12.023076923076925;;;6.161538461538461;;
15557;SDS011;7880;50.110;9.372;2022-11-20T15:51:19;10.976923076923075;;;6.438461538461538;;
15557;SDS011;7880;50.110;9.372;2022-11-20T15:56:19;12.146153846153847;;;6.66153846153846;;
15557;SDS011;7880;50.110;9.372;2022-11-20T16:01:23;13.353846153846158;;;6.8769230769230765;;
15557;SDS011;7880;50.110;9.372;2022-11-20T16:06:27;9.884615384615385;;;5.676923076923076;;
15557;SDS011;7880;50.110;9.372;2022-11-20T16:11:30;8.36153846153846;;;5.338461538461539;;
15557;SDS011;7880;50.110;9.372;2022-11-20T16:16:36;11.807692307692308;;;6.684615384615384;;
15557;SDS011;7880;50.110;9.372;2022-11-20T16:21:39;14.461538461538456;;;7.015384615384615;;
15557;SDS011;7880;50.110;9.372;2022-11-20T16:26:56;11.123076923076924;;;6.299999999999998;;
15557;SDS011;7880;50.110;9.372;2022-11-20T16:32:01;13.784615384615384;;;7.16153846153846;;
15557;SDS011;7880;50.110;9.372;2022-11-20T16:37:08;12.023076923076925;;;6.5;;
15557;SDS011;7880;50.110;9.372;2022-11-20T16:42:11;16.39230769230769;;;9.66153846153846;;
15557;SDS011;7880;50.110;9.372;2022-11-20T16:47:16;11.592307692307696;;;7.138461538461541;;
15557;SDS011;7880;50.110;9.372;2022-11-20T16:52:20;90.23846153846156;;;34.861538461538466;;
15557;SDS011;7880;50.110;9.372;2022-11-20T16:57:24;33.207692307692305;;;16.46923076923077;;
15557;SDS011;7880;50.110;9.372;2022-11-20T17:02:27;28.515384615384612;;;12.853846153846153;;
15557;SDS011;7880;50.110;9.372;2022-11-20T17:07:31;176.4923076923077;;;69.13076923076925;;
15557;SDS011;7880;50.110;9.372;2022-11-20T17:12:34;51.23076923076921;;;28.507692307692302;;
15557;SDS011;7880;50.110;9.372;2022-11-20T17:17:39;53.600000000000016;;;28.776923076923065;;
15557;SDS011;7880;50.110;9.372;2022-11-20T17:22:44;20.3923076923077;;;12.146153846153842;;
15557;SDS011;7880;50.110;9.372;2022-11-20T17:27:47;9.861538461538462;;;5.638461538461541;;
15557;SDS011;7880;50.110;9.372;2022-11-20T17:32:54;16.56153846153846;;;10.8;;
15557;SDS011;7880;50.110;9.372;2022-11-20T17:38:03;12.253846153846153;;;7.215384615384618;;
15557;SDS011;7880;50.110;9.372;2022-11-20T17:43:00;16.561538461538458;;;10.299999999999999;;
15557;SDS011;7880;50.110;9.372;2022-11-20T17:48:03;13.699999999999998;;;8.353846153846153;;
15557;SDS011;7880;50.110;9.372;2022-11-20T17:53:08;10.538461538461537;;;5.861538461538459;;
15557;SDS011;7880;50.110;9.372;2022-11-20T17:58:11;12.88461538461538;;;7.384615384615386;;
15557;SDS011;7880;50.110;9.372;2022-11-20T18:03:15;9.900000000000002;;;4.8769230769230765;;
15557;SDS011;7880;50.110;9.372;2022-11-20T18:08:19;13.592307692307688;;;7.638461538461541;;
15557;SDS011;7880;50.110;9.372;2022-11-20T18:14:25;6.684615384615384;;;4.461538461538461;;
15557;SDS011;7880;50.110;9.372;2022-11-20T18:19:05;7.16153846153846;;;4.36153846153846;;
15557;SDS011;7880;50.110;9.372;2022-11-20T18:24:09;26.092307692307706;;;9.93846153846154;;
15557;SDS011;7880;50.110;9.372;2022-11-20T18:29:16;14.38461538461538;;;7.200000000000002;;
15557;SDS011;7880;50.110;9.372;2022-11-20T18:34:25;7.692307692307694;;;5.630769230769232;;
15557;SDS011;7880;50.110;9.372;2022-11-20T18:39:32;24.961538461538456;;;16.56153846153846;;
15557;SDS011;7880;50.110;9.372;2022-11-20T18:45:01;22.169230769230776;;;13.199999999999998;;
15557;SDS011;7880;50.110;9.372;2022-11-20T18:49:46;9.200000000000001;;;5.138461538461541;;
15557;SDS011;7880;50.110;9.372;2022-11-20T18:54:46;11.992307692307692;;;7.4615384615384635;;
15557;SDS011;7880;50.110;9.372;2022-11-20T18:59:50;8.415384615384612;;;3.7999999999999994;;
15557;SDS011;7880;50.110;9.372;2022-11-20T19:04:54;6.953846153846154;;;4.8538461538461535;;
15557;SDS011;7880;50.110;9.372;2022-11-20T19:09:59;6.061538461538462;;;3.899999999999999;;
15557;SDS011;7880;50.110;9.372;2022-11-20T19:15:03;5.761538461538462;;;3.100000000000001;;
15557;SDS011;7880;50.110;9.372;2022-11-20T19:20:06;6.7769230769230795;;;3.315384615384615;;
15557;SDS011;7880;50.110;9.372;2022-11-20T19:25:10;4.3769230769230765;;;2.9384615384615382;;
15557;SDS011;7880;50.110;9.372;2022-11-20T19:30:14;4.299999999999999;;;2.6000000000000005;;
15557;SDS011;7880;50.110;9.372;2022-11-20T19:35:22;7.4615384615384635;;;5.0;;
15557;SDS011;7880;50.110;9.372;2022-11-20T19:40:23;8.023076923076925;;;3.7999999999999994;;
15557;SDS011;7880;50.110;9.372;2022-11-20T19:45:26;5.1230769230769235;;;3.5615384615384618;;
15557;SDS011;7880;50.110;9.372;2022-11-20T19:50:31;7.784615384615382;;;4.223076923076923;;
15557;SDS011;7880;50.110;9.372;2022-11-20T19:55:34;4.36153846153846;;;2.2384615384615385;;
15557;SDS011;7880;50.110;9.372;2022-11-20T20:00:37;6.684615384615384;;;2.3000000000000003;;
15557;SDS011;7880;50.110;9.372;2022-11-20T20:05:41;4.507692307692308;;;1.8692307692307695;;
15557;SDS011;7880;50.110;9.372;2022-11-20T20:10:45;3.0769230769230775;;;2.1384615384615384;;
15557;SDS011;7880;50.110;9.372;2022-11-20T20:15:49;2.638461538461539;;;1.8384615384615381;;
15557;SDS011;7880;50.110;9.372;2022-11-20T20:20:54;5.761538461538462;;;2.5;;
15557;SDS011;7880;50.110;9.372;2022-11-20T20:26:10;2.961538461538461;;;1.6615384615384619;;
15557;SDS011;7880;50.110;9.372;2022-11-20T20:31:06;3.3615384615384603;;;2.899999999999999;;
15557;SDS011;7880;50.110;9.372;2022-11-20T20:36:09;2.5615384615384618;;;2.2615384615384615;;
15557;SDS011;7880;50.110;9.372;2022-11-20T20:41:11;7.284615384615382;;;3.399999999999999;;
15557;SDS011;7880;50.110;9.372;2022-11-20T20:46:18;3.4538461538461553;;;2.7384615384615376;;
15557;SDS011;7880;50.110;9.372;2022-11-20T20:51:20;3.3615384615384603;;;2.0615384615384618;;
15557;SDS011;7880;50.110;9.372;2022-11-20T20:56:24;2.7615384615384624;;;2.038461538461539;;
15557;SDS011;7880;50.110;9.372;2022-11-20T21:01:29;2.961538461538461;;;1.861538461538462;;
15557;SDS011;7880;50.110;9.372;2022-11-20T21:06:33;2.576923076923077;;;2.338461538461538;;
15557;SDS011;7880;50.110;9.372;2022-11-20T21:11:44;6.66153846153846;;;2.3999999999999995;;
15557;SDS011;7880;50.110;9.372;2022-11-20T21:16:43;2.815384615384615;;;2.576923076923077;;
15557;SDS011;7880;50.110;9.372;2022-11-20T21:22:02;2.2384615384615385;;;2.038461538461539;;
15557;SDS011;7880;50.110;9.372;2022-11-20T21:26:51;3.261538461538461;;;2.430769230769231;;
15557;SDS011;7880;50.110;9.372;2022-11-20T21:31:08;3.899999999999999;;;3.161538461538462;;
15557;SDS011;7880;50.110;9.372;2022-11-20T21:36:14;2.830769230769231;;;2.530769230769231;;
15557;SDS011;7880;50.110;9.372;2022-11-20T21:41:14;3.3615384615384603;;;2.8615384615384607;;
15557;SDS011;7880;50.110;9.372;2022-11-20T21:46:27;2.638461538461539;;;2.4384615384615382;;
15557;SDS011;7880;50.110;9.372;2022-11-20T21:51:25;2.899999999999999;;;2.3000000000000003;;
15557;SDS011;7880;50.110;9.372;2022-11-20T21:56:28;2.6000000000000005;;;2.3615384615384616;;
15557;SDS011;7880;50.110;9.372;2022-11-20T22:01:33;3.5923076923076915;;;2.5615384615384618;;
15557;SDS011;7880;50.110;9.372;2022-11-20T22:06:38;6.338461538461538;;;2.3999999999999995;;
15557;SDS011;7880;50.110;9.372;2022-11-20T22:11:53;3.7615384615384633;;;2.1000000000000005;;
15557;SDS011;7880;50.110;9.372;2022-11-20T22:16:47;4.1230769230769235;;;2.5;;